Terminal Aerodrome Forecast
Issued by NWS

Home | Current Version | Previous Version | Text Only | Print | Product List | Glossary On
Versions: 1 2 3 4 5 6 7 8 9 10 11 12 13 14 15 16
145
FTUS41 KPBZ 251720
TAFLBE
TAF
KLBE 251720Z 2518/2618 25009KT P6SM BKN035
     FM260300 22006KT P6SM VCTS BKN035CB
     FM260700 25006KT 5SM BR BKN015
     FM261400 29005KT P6SM SCT020=

USA.gov is the U.S. government's official web portal to all federal, state and local government web resources and services.